Enter the Airport ICAO Code

Search by Airport or City

Current Weather

GCRR | Lanzarote Airport

Lanzarote, Canary Islands, Spain

Last Update 32 Minutes Ago

Sky with Few Clouds

Temperature of 29 ºC

Moderate to Strong Winds from North

Temperature

29 ºC

Dew Point Temperature

18 ºC

Relative Humidity

51.71 %

Wind Direction

North (010º, Ranging from 330º to 040º)

Wind Velocity

37 km/h (20 kt)

Gusts

None

Visibility

Greater than 10 Kilometers

Sea Level Pressure

1016 hPa (Hectopascals)

Layers of Clouds

5% to 30% of Sky Covered from 914 mts (3000 ft) Above Ground Level.

METAR GCRR 121400Z 01020KT 330V040 9999 FEW030 29/18 Q1016

Weather Forecast

GCRR | Lanzarote Airport

Lanzarote, Canary Islands, Spain

Forecast valid for the next 24 Hours

From now on it is expected:

Sky with Few Clouds

Moderate to Strong Winds from North

From now on it is expected 5 hours with intermittent periods of:

Moderate to Strong Winds from North with Gusts

Maximum Temperature

29 ºC in 23 Hours

Minimum Temperature

21 ºC in 15 Hours

TAF GCRR 121400Z 1215/1315 01020KT 9999 FEW025 TX29/1314Z TN21/1306Z PROB30 TEMPO 1215/1220 01018G28KT